Time;durP1;ratioP1;P1;durP2;ratioP2;P2;SDS_P1;SDS_P2;PMS_P1;PMS_P2;Temp;Humidity;BMP_temperature;BMP_pressure;BME280_temperature;BME280_humidity;BME280_pressure;Samples;Min_cycle;Max_cycle;Signal;HPM_P1;HPM_P2
2023/04/12 00:01:51;;;;;;;5.68;0.38;;;10.70;75.00;;;;;;4770856;30;20048;-82
2023/04/12 00:04:21;;;;;;;3.42;0.43;;;10.70;75.30;;;;;;4739705;30;20510;-83
2023/04/12 00:06:49;;;;;;;4.30;0.50;;;10.70;75.40;;;;;;4738393;30;20052;-83
2023/04/12 00:09:16;;;;;;;2.45;0.50;;;10.70;75.90;;;;;;4726076;30;20113;-83
2023/04/12 00:11:43;;;;;;;2.40;0.50;;;10.60;76.30;;;;;;4737349;30;20063;-82
2023/04/12 00:14:10;;;;;;;4.55;0.63;;;10.50;76.60;;;;;;4763740;30;20055;-82
2023/04/12 00:16:37;;;;;;;3.72;0.60;;;10.40;77.70;;;;;;4739447;30;20406;-82
2023/04/12 00:19:05;;;;;;;5.93;0.50;;;10.30;78.10;;;;;;4741233;30;20055;-82
2023/04/12 00:21:32;;;;;;;1.30;0.40;;;10.20;78.40;;;;;;4746825;30;20513;-82
2023/04/12 00:24:00;;;;;;;2.35;0.40;;;10.10;78.80;;;;;;4740818;30;20490;-82
2023/04/12 00:26:27;;;;;;;1.10;0.30;;;10.00;79.20;;;;;;4749838;30;20058;-83
2023/04/12 00:28:54;;;;;;;1.20;0.50;;;10.00;79.60;;;;;;4761244;30;20094;-82
2023/04/12 00:31:21;;;;;;;1.52;0.30;;;9.90;79.60;;;;;;4740393;30;20083;-82
2023/04/12 00:33:49;;;;;;;1.27;0.40;;;9.90;79.90;;;;;;4741893;30;20067;-82
2023/04/12 00:36:16;;;;;;;2.10;0.30;;;9.90;80.10;;;;;;4723267;30;20048;-82
2023/04/12 00:38:44;;;;;;;1.23;0.28;;;9.90;80.50;;;;;;4737876;30;20131;-82
2023/04/12 00:41:13;;;;;;;4.22;0.30;;;9.80;80.80;;;;;;4737953;30;20044;-82
2023/04/12 00:43:41;;;;;;;3.45;0.40;;;9.80;81.30;;;;;;4752344;30;20627;-82
2023/04/12 00:46:08;;;;;;;1.63;0.30;;;9.80;81.40;;;;;;4745444;30;20138;-82
2023/04/12 00:48:36;;;;;;;1.60;0.30;;;9.80;81.70;;;;;;4741922;30;20063;-82
2023/04/12 00:51:06;;;;;;;3.17;0.40;;;9.70;82.20;;;;;;4734013;30;20055;-82
2023/04/12 00:53:33;;;;;;;2.92;0.50;;;9.70;82.90;;;;;;4742752;30;20059;-82
2023/04/12 00:56:02;;;;;;;2.53;0.40;;;9.60;83.70;;;;;;4737540;30;20056;-82
2023/04/12 00:58:30;;;;;;;1.25;0.40;;;9.50;84.90;;;;;;4729539;30;20521;-82
2023/04/12 01:00:57;;;;;;;0.70;0.30;;;9.50;84.60;;;;;;4726586;30;20049;-82
2023/04/12 01:03:26;;;;;;;1.85;0.30;;;9.40;84.40;;;;;;4741543;30;20048;-82
2023/04/12 01:06:15;;;;;;;1.38;0.40;;;9.40;84.80;;;;;;4724433;30;20056;-82
2023/04/12 01:09:10;;;;;;;0.90;0.40;;;9.40;85.30;;;;;;4758117;30;20060;-82
2023/04/12 01:11:45;;;;;;;0.73;0.30;;;9.40;85.80;;;;;;4742070;30;20059;-82
2023/04/12 01:14:41;;;;;;;1.92;0.38;;;9.30;85.90;;;;;;4744415;30;20115;-82
2023/04/12 01:17:13;;;;;;;2.33;0.45;;;9.30;86.00;;;;;;4748048;30;20060;-82
2023/04/12 01:19:56;;;;;;;1.13;0.30;;;9.30;86.40;;;;;;4740546;30;20091;-82
2023/04/12 01:22:23;;;;;;;1.27;0.30;;;9.30;86.30;;;;;;4746318;30;20052;-82
2023/04/12 01:25:12;;;;;;;0.40;0.10;;;9.30;86.30;;;;;;4750841;30;20071;-82
2023/04/12 01:27:48;;;;;;;0.73;0.20;;;9.40;86.40;;;;;;4751961;30;20060;-82
2023/04/12 01:30:19;;;;;;;1.02;0.20;;;9.40;86.50;;;;;;4739236;30;20052;-82
2023/04/12 01:32:50;;;;;;;1.00;0.28;;;9.30;86.70;;;;;;4744852;30;20059;-82
2023/04/12 01:35:20;;;;;;;0.35;0.10;;;9.40;86.90;;;;;;4753031;30;20147;-82
2023/04/12 01:37:47;;;;;;;1.45;0.30;;;9.30;87.30;;;;;;4751270;30;20052;-82
2023/04/12 01:40:17;;;;;;;1.25;0.10;;;9.30;87.30;;;;;;4754054;30;20060;-82
2023/04/12 01:42:45;;;;;;;2.05;0.30;;;9.30;88.10;;;;;;4746451;30;20067;-82
2023/04/12 01:45:12;;;;;;;1.02;0.15;;;9.30;87.60;;;;;;4740795;30;20052;-82
2023/04/12 01:47:39;;;;;;;0.60;0.10;;;9.30;87.90;;;;;;4740356;30;20063;-82
2023/04/12 01:50:44;;;;;;;0.57;0.10;;;9.20;88.00;;;;;;4746717;30;20051;-82
2023/04/12 01:53:22;;;;;;;0.17;0.10;;;9.20;88.20;;;;;;4709611;30;20066;-82
2023/04/12 01:55:51;;;;;;;0.52;0.10;;;9.20;88.30;;;;;;4701875;30;20077;-82
2023/04/12 01:58:23;;;;;;;2.97;0.30;;;9.20;88.40;;;;;;4728774;30;20097;-82
2023/04/12 02:00:51;;;;;;;0.60;0.15;;;9.20;88.60;;;;;;4738825;30;20477;-82
2023/04/12 02:03:22;;;;;;;2.28;0.50;;;9.20;88.80;;;;;;4745355;30;20560;-82
2023/04/12 02:05:51;;;;;;;0.88;0.22;;;9.20;89.00;;;;;;4739085;30;20048;-82
2023/04/12 02:08:20;;;;;;;2.05;0.40;;;9.20;89.20;;;;;;4736439;30;20478;-82
2023/04/12 02:10:47;;;;;;;2.20;0.63;;;9.10;89.20;;;;;;4736494;30;20055;-82
2023/04/12 02:13:16;;;;;;;3.92;0.43;;;9.10;89.50;;;;;;4736727;30;20475;-82
2023/04/12 02:15:44;;;;;;;0.88;0.30;;;9.10;89.60;;;;;;4736411;30;20052;-82
2023/04/12 02:18:12;;;;;;;2.92;0.57;;;9.10;89.80;;;;;;4736182;30;20093;-82
2023/04/12 02:20:42;;;;;;;1.25;0.30;;;9.10;89.90;;;;;;4734592;30;20053;-83
2023/04/12 02:23:09;;;;;;;1.70;0.30;;;9.10;90.00;;;;;;4735466;30;20062;-82
2023/04/12 02:25:38;;;;;;;2.85;0.30;;;9.10;90.30;;;;;;4736450;30;20063;-82
2023/04/12 02:28:05;;;;;;;0.88;0.20;;;9.10;90.10;;;;;;4741397;30;20143;-82
2023/04/12 02:30:33;;;;;;;4.40;0.43;;;9.10;90.20;;;;;;4736675;30;20139;-82
2023/04/12 02:33:01;;;;;;;1.67;0.30;;;9.10;90.20;;;;;;4751364;30;20506;-82
2023/04/12 02:35:32;;;;;;;1.00;0.20;;;9.10;90.30;;;;;;4719646;30;20052;-82
2023/04/12 02:38:07;;;;;;;1.25;0.25;;;9.10;90.60;;;;;;4742758;30;20055;-82
2023/04/12 02:40:41;;;;;;;1.60;0.30;;;9.10;90.40;;;;;;4746083;30;20060;-82
2023/04/12 02:43:13;;;;;;;1.10;0.25;;;9.00;90.40;;;;;;4759465;30;20363;-82
2023/04/12 02:45:44;;;;;;;1.73;0.30;;;9.10;90.40;;;;;;4753956;30;20525;-82
2023/04/12 02:48:11;;;;;;;2.25;0.20;;;9.10;90.50;;;;;;4747350;30;20508;-82
2023/04/12 02:50:38;;;;;;;1.77;0.40;;;9.10;90.50;;;;;;4724448;30;20054;-81
2023/04/12 02:53:14;;;;;;;1.42;0.30;;;9.10;90.50;;;;;;4747339;30;20087;-82
2023/04/12 02:55:45;;;;;;;1.52;0.30;;;9.10;90.50;;;;;;4733462;30;20055;-82
2023/04/12 02:58:13;;;;;;;2.08;0.40;;;9.10;90.60;;;;;;4739913;30;20062;-83
2023/04/12 03:00:45;;;;;;;2.47;0.30;;;9.10;90.60;;;;;;4747767;30;20067;-82
2023/04/12 03:03:16;;;;;;;1.95;0.30;;;9.10;90.60;;;;;;4745749;30;20183;-82
2023/04/12 03:05:46;;;;;;;1.80;0.28;;;9.10;90.60;;;;;;4750444;30;20052;-82
2023/04/12 03:08:16;;;;;;;1.05;0.30;;;9.10;90.60;;;;;;4739080;30;20052;-82
2023/04/12 03:10:50;;;;;;;1.10;0.20;;;9.10;90.90;;;;;;4729108;30;20048;-82
2023/04/12 03:13:21;;;;;;;1.08;0.20;;;9.20;90.60;;;;;;4739463;30;20399;-82
2023/04/12 03:15:55;;;;;;;2.60;0.22;;;9.20;90.60;;;;;;4739216;30;20114;-82
2023/04/12 03:18:31;;;;;;;0.40;0.10;;;9.20;90.60;;;;;;4741469;30;20083;-82
2023/04/12 03:20:58;;;;;;;0.75;0.10;;;9.20;90.60;;;;;;4742270;30;20525;-82
2023/04/12 03:23:26;;;;;;;1.00;0.40;;;9.20;90.60;;;;;;4740624;30;20410;-82
2023/04/12 03:26:13;;;;;;;1.40;0.30;;;9.20;90.70;;;;;;4721688;30;20135;-82
2023/04/12 03:29:06;;;;;;;1.05;0.20;;;9.20;90.70;;;;;;4739648;30;20084;-82
2023/04/12 03:31:38;;;;;;;0.60;0.22;;;9.20;90.70;;;;;;4754016;30;20143;-82
2023/04/12 03:34:07;;;;;;;1.23;0.40;;;9.10;90.80;;;;;;4738998;30;20060;-83
2023/04/12 03:36:38;;;;;;;1.65;0.32;;;9.10;90.80;;;;;;4729425;30;20076;-82
2023/04/12 03:39:13;;;;;;;1.23;0.28;;;9.10;90.80;;;;;;4729707;30;20060;-82
2023/04/12 03:41:42;;;;;;;1.90;0.35;;;9.10;90.80;;;;;;4746969;30;20062;-82
2023/04/12 03:44:09;;;;;;;2.30;0.43;;;9.10;90.90;;;;;;4735801;30;20098;-82
2023/04/12 03:46:37;;;;;;;1.95;0.40;;;9.10;90.90;;;;;;4750052;30;20410;-82
2023/04/12 03:49:08;;;;;;;1.33;0.25;;;9.10;91.00;;;;;;4726002;30;20079;-82
2023/04/12 03:51:41;;;;;;;0.60;0.20;;;9.10;91.00;;;;;;4738689;30;20058;-82
2023/04/12 03:54:10;;;;;;;0.75;0.30;;;9.10;91.10;;;;;;4744403;30;20107;-82
2023/04/12 03:56:48;;;;;;;0.80;0.20;;;9.10;91.10;;;;;;4747091;30;20602;-82
2023/04/12 03:59:23;;;;;;;0.82;0.20;;;9.00;91.10;;;;;;4726336;30;20065;-82
2023/04/12 04:01:50;;;;;;;2.30;1.05;;;9.00;91.40;;;;;;4746642;30;20051;-82
2023/04/12 04:04:20;;;;;;;2.55;0.32;;;9.00;91.30;;;;;;4738496;30;20430;-83
2023/04/12 04:06:51;;;;;;;0.82;0.17;;;8.90;91.30;;;;;;4752513;30;20505;-83
2023/04/12 04:09:19;;;;;;;1.75;0.30;;;8.90;91.40;;;;;;4740819;30;20146;-83
2023/04/12 04:11:48;;;;;;;1.48;0.30;;;8.90;91.80;;;;;;4747214;30;20077;-83
2023/04/12 04:14:16;;;;;;;1.67;0.30;;;8.90;91.60;;;;;;4744163;30;20567;-83
2023/04/12 04:16:44;;;;;;;1.40;0.30;;;8.90;91.60;;;;;;4746401;30;20117;-83
2023/04/12 04:19:12;;;;;;;1.38;0.32;;;8.90;91.60;;;;;;4746310;30;20519;-83
2023/04/12 04:21:42;;;;;;;0.50;0.20;;;8.90;91.70;;;;;;4738407;30;20052;-83
2023/04/12 04:24:12;;;;;;;2.53;0.28;;;8.80;91.80;;;;;;4738063;30;20052;-83
2023/04/12 04:26:45;;;;;;;0.93;0.20;;;8.80;91.80;;;;;;4756340;30;20048;-83
2023/04/12 04:29:22;;;;;;;2.47;0.75;;;8.80;91.90;;;;;;4739595;30;20060;-83
2023/04/12 04:31:50;;;;;;;0.98;0.20;;;8.70;92.00;;;;;;4740356;30;20044;-84
2023/04/12 04:34:17;;;;;;;1.63;0.20;;;8.70;92.00;;;;;;4752872;30;20425;-84
2023/04/12 04:36:46;;;;;;;1.35;0.35;;;8.70;92.10;;;;;;4752102;30;20083;-84
2023/04/12 04:39:21;;;;;;;3.45;0.47;;;8.70;92.20;;;;;;4752398;30;20056;-83
2023/04/12 04:41:53;;;;;;;1.13;0.30;;;8.70;92.30;;;;;;4724385;30;20632;-84
2023/04/12 04:44:44;;;;;;;2.15;0.30;;;8.70;92.40;;;;;;4754601;30;20043;-83
2023/04/12 04:47:13;;;;;;;2.33;0.50;;;8.60;92.40;;;;;;4759544;30;20059;-84
2023/04/12 04:49:43;;;;;;;1.67;0.40;;;8.60;92.60;;;;;;4727815;30;20060;-83
2023/04/12 04:52:23;;;;;;;1.80;0.50;;;8.60;92.60;;;;;;4745765;30;20056;-84
2023/04/12 04:54:56;;;;;;;1.27;0.20;;;8.60;92.70;;;;;;4747711;30;20056;-84
2023/04/12 04:57:27;;;;;;;1.00;0.50;;;8.60;92.70;;;;;;4738882;30;20058;-84
2023/04/12 04:59:55;;;;;;;0.88;0.30;;;8.60;92.70;;;;;;4739521;30;20052;-83
2023/04/12 05:02:28;;;;;;;0.98;0.38;;;8.60;92.70;;;;;;4739822;30;20056;-84
2023/04/12 05:04:58;;;;;;;1.15;0.30;;;8.60;92.80;;;;;;4748892;30;21055;-83
2023/04/12 05:07:28;;;;;;;1.02;0.20;;;8.60;92.80;;;;;;4739137;30;20056;-84
2023/04/12 05:09:56;;;;;;;0.88;0.25;;;8.50;92.90;;;;;;4759169;30;20549;-84
2023/04/12 05:12:25;;;;;;;1.20;0.30;;;8.60;92.90;;;;;;4737426;30;20066;-84
2023/04/12 05:14:55;;;;;;;0.90;0.22;;;8.60;93.00;;;;;;4757238;30;20077;-84
2023/04/12 05:17:38;;;;;;;1.33;0.30;;;8.60;93.10;;;;;;4750013;30;20044;-84
2023/04/12 05:20:06;;;;;;;0.85;0.35;;;8.60;93.10;;;;;;4751921;30;20052;-85
2023/04/12 05:22:34;;;;;;;2.13;0.30;;;8.60;93.20;;;;;;4747020;30;20051;-84
2023/04/12 05:25:05;;;;;;;0.90;0.30;;;8.60;93.10;;;;;;4725303;30;20044;-84
2023/04/12 05:27:38;;;;;;;1.23;0.28;;;8.60;93.10;;;;;;4752786;30;20072;-83
2023/04/12 05:30:07;;;;;;;1.75;0.65;;;8.60;93.30;;;;;;4753761;30;20410;-82
2023/04/12 05:32:34;;;;;;;2.40;0.55;;;8.60;93.30;;;;;;4733080;30;20154;-83
2023/04/12 05:35:02;;;;;;;0.55;0.30;;;8.60;93.40;;;;;;4757921;30;20091;-83
2023/04/12 05:37:30;;;;;;;3.10;0.60;;;8.60;93.40;;;;;;4751556;30;20055;-83
2023/04/12 05:39:57;;;;;;;1.50;0.30;;;8.50;93.50;;;;;;4723149;30;20089;-83
2023/04/12 05:42:27;;;;;;;2.03;0.50;;;8.50;93.50;;;;;;4716793;30;20067;-84
2023/04/12 05:44:55;;;;;;;0.90;0.22;;;8.50;93.60;;;;;;4753067;30;20124;-84
2023/04/12 05:47:23;;;;;;;1.23;0.40;;;8.50;93.60;;;;;;4748076;30;20076;-84
2023/04/12 05:49:52;;;;;;;1.48;0.30;;;8.50;93.70;;;;;;4733543;30;20057;-83
2023/04/12 05:52:19;;;;;;;0.57;0.20;;;8.50;93.70;;;;;;4733572;30;20511;-84
2023/04/12 05:54:48;;;;;;;1.00;0.30;;;8.50;93.70;;;;;;4752580;30;20395;-84
2023/04/12 05:57:17;;;;;;;1.48;0.55;;;8.60;93.70;;;;;;4737951;30;20078;-85
2023/04/12 05:59:47;;;;;;;0.82;0.30;;;8.60;93.70;;;;;;4736865;30;20056;-85
2023/04/12 06:02:14;;;;;;;1.90;0.38;;;8.60;93.70;;;;;;4726076;30;20127;-85
2023/04/12 06:04:41;;;;;;;1.13;0.50;;;8.60;93.90;;;;;;4751336;30;20075;-85
2023/04/12 06:07:18;;;;;;;1.55;0.25;;;8.60;93.90;;;;;;4751803;30;20055;-84
2023/04/12 06:09:46;;;;;;;0.80;0.30;;;8.60;93.90;;;;;;4736460;30;20052;-85
2023/04/12 06:12:14;;;;;;;2.10;0.50;;;8.70;94.20;;;;;;4747592;30;20052;-84
2023/04/12 06:14:41;;;;;;;0.60;0.20;;;8.70;94.00;;;;;;4730672;30;20052;-85
2023/04/12 06:17:09;;;;;;;0.80;0.30;;;8.60;94.00;;;;;;4761358;30;20052;-86
2023/04/12 06:19:39;;;;;;;0.80;0.35;;;8.70;94.10;;;;;;4754996;30;20147;-87
2023/04/12 06:22:14;;;;;;;1.20;0.30;;;8.60;94.10;;;;;;4760250;30;20147;-86
2023/04/12 06:24:45;;;;;;;2.25;0.28;;;8.70;94.20;;;;;;4736928;30;20048;-87
2023/04/12 06:27:32;;;;;;;1.48;0.32;;;8.60;94.60;;;;;;4751284;30;20056;-90
2023/04/12 06:30:07;;;;;;;0.70;0.30;;;8.60;94.40;;;;;;4750771;30;20055;-89
2023/04/12 06:33:23;;;;;;;2.25;0.95;;;8.60;94.40;;;;;;4750932;30;20063;-90
2023/04/12 06:36:41;;;;;;;;;;;;;;;;;;;;;
2023/04/12 06:39:57;;;;;;;0.63;0.20;;;8.60;94.40;;;;;;4744953;30;20514;-90
2023/04/12 06:42:49;;;;;;;1.85;0.20;;;8.70;94.40;;;;;;4739851;30;20052;-90
2023/04/12 06:46:30;;;;;;;;;;;;;;;;;;;;;
2023/04/12 06:49:03;;;;;;;0.60;0.20;;;8.80;94.30;;;;;;4734213;30;20507;-90
2023/04/12 06:52:56;;;;;;;0.65;0.63;;;8.80;94.30;;;;;;4744248;30;20055;-91
2023/04/12 07:00:08;;;;;;;;;;;;;;;;;;;;;
2023/04/12 07:03:44;;;;;;;0.82;0.10;;;8.80;94.40;;;;;;4698796;30;20062;-91
2023/04/12 07:07:39;;;;;;;0.95;0.35;;;8.80;94.40;;;;;;4690594;30;20054;-90
2023/04/12 07:11:20;;;;;;;;;;;;;;;;;;;;;
2023/04/12 07:14:16;;;;;;;1.10;0.20;;;8.80;94.50;;;;;;4647284;30;20058;-91
2023/04/12 07:17:20;;;;;;;1.35;0.30;;;8.80;94.50;;;;;;4664140;30;20111;-92
2023/04/12 07:20:40;;;;;;;1.23;0.17;;;8.80;94.50;;;;;;4668176;30;20520;-91
2023/04/12 07:23:51;;;;;;;0.80;0.20;;;8.90;94.50;;;;;;4649716;30;20066;-92
2023/04/12 07:26:46;;;;;;;0.65;0.30;;;8.90;94.50;;;;;;4650083;30;20070;-91
2023/04/12 07:34:15;;;;;;;1.35;0.30;;;8.90;94.60;;;;;;4623487;30;20100;-92
2023/04/12 07:37:39;;;;;;;;;;;;;;;;;;;;;
2023/04/12 07:40:20;;;;;;;1.00;0.22;;;9.00;94.60;;;;;;4644182;30;20061;-96
2023/04/12 07:42:52;;;;;;;0.82;0.20;;;9.10;94.60;;;;;;4668044;30;20047;-94
2023/04/12 07:45:31;;;;;;;0.38;0.20;;;9.10;94.60;;;;;;4666698;30;20505;-95
2023/04/12 07:48:07;;;;;;;1.10;0.40;;;9.20;94.60;;;;;;4704984;30;20063;-94
2023/04/12 07:50:45;;;;;;;0.73;0.28;;;9.10;94.70;;;;;;4724899;30;20091;-94
2023/04/12 07:53:30;;;;;;;1.67;0.50;;;9.10;94.70;;;;;;4724708;30;20498;-94
2023/04/12 07:56:21;;;;;;;3.33;1.10;;;9.10;94.80;;;;;;4737591;30;20084;-94
2023/04/12 07:59:01;;;;;;;5.72;2.35;;;9.10;95.00;;;;;;4740675;30;20052;-95
2023/04/12 08:01:29;;;;;;;7.32;3.35;;;9.10;95.00;;;;;;4756092;30;20147;-94
2023/04/12 08:04:20;;;;;;;4.13;1.50;;;9.10;95.10;;;;;;4753908;30;20044;-93
2023/04/12 08:07:31;;;;;;;;;;;;;;;;;;;;;
2023/04/12 08:10:38;;;;;;;3.85;1.20;;;9.30;95.10;;;;;;4765477;30;20471;-95
2023/04/12 08:13:24;;;;;;;;;;;9.30;95.20;;;;;;4737660;30;20088;-95
2023/04/12 08:15:53;;;;;;;3.10;0.93;;;9.30;95.20;;;;;;4757295;30;19926;-95
2023/04/12 08:18:20;;;;;;;2.88;1.13;;;9.30;95.30;;;;;;4757681;30;20054;-95
2023/04/12 08:20:50;;;;;;;3.90;1.08;;;9.30;95.20;;;;;;4773026;30;20459;-95
2023/04/12 08:27:28;;;;;;;1.67;0.60;;;9.40;95.30;;;;;;4752894;30;20142;-93
2023/04/12 08:29:56;;;;;;;2.00;0.75;;;9.50;95.20;;;;;;4776918;30;20066;-94
2023/04/12 08:32:30;;;;;;;1.40;0.50;;;9.60;95.20;;;;;;4753064;30;20425;-94
2023/04/12 08:35:15;;;;;;;2.10;1.00;;;9.70;95.10;;;;;;4753918;30;20052;-91
2023/04/12 08:38:54;;;;;;;3.65;1.00;;;9.80;95.10;;;;;;4737144;30;20502;-90
2023/04/12 08:42:07;;;;;;;;;;;;;;;;;;;;;
2023/04/12 08:45:11;;;;;;;;;;;;;;;;;;;;;
2023/04/12 08:53:55;;;;;;;3.17;0.70;;;9.90;95.20;;;;;;4729064;30;20035;-90
2023/04/12 08:57:06;;;;;;;;;;;;;;;;;;;;;
2023/04/12 09:09:10;;;;;;;3.55;0.50;;;10.20;94.90;;;;;;4599120;31;20047;-94
2023/04/12 09:11:39;;;;;;;;;;;10.30;94.80;;;;;;4647077;30;20441;-95
2023/04/12 09:14:26;;;;;;;2.78;0.30;;;10.40;94.80;;;;;;4681113;30;19985;-95
2023/04/12 09:16:54;;;;;;;1.65;0.50;;;10.50;94.60;;;;;;4683752;30;20061;-95
2023/04/12 09:19:34;;;;;;;2.20;0.57;;;10.60;94.60;;;;;;4688068;30;20141;-94
2023/04/12 09:22:01;;;;;;;2.33;0.43;;;10.70;94.50;;;;;;4705652;30;20054;-94
2023/04/12 09:24:44;;;;;;;2.83;0.75;;;10.80;94.50;;;;;;4700993;30;20050;-94
2023/04/12 09:27:47;;;;;;;2.15;0.50;;;10.90;94.30;;;;;;4700156;30;20050;-91
2023/04/12 09:30:15;;;;;;;;;;;11.20;94.10;;;;;;4686702;30;20144;-95
2023/04/12 09:32:54;;;;;;;4.00;0.90;;;11.20;94.00;;;;;;4700040;30;19926;-94
2023/04/12 09:35:36;;;;;;;3.33;0.90;;;11.30;93.90;;;;;;4700359;30;20100;-95
2023/04/12 09:38:09;;;;;;;4.15;0.88;;;11.50;93.80;;;;;;4744571;30;20079;-93
2023/04/12 09:40:37;;;;;;;6.80;1.00;;;11.60;93.70;;;;;;4766888;30;20064;-94
2023/04/12 09:43:07;;;;;;;3.65;0.75;;;11.80;93.50;;;;;;4752206;30;20045;-94
2023/04/12 09:45:38;;;;;;;4.20;0.93;;;11.90;93.30;;;;;;4754688;30;20044;-88
2023/04/12 09:48:28;;;;;;;2.67;0.90;;;12.00;93.20;;;;;;4735150;30;20053;-91
2023/04/12 09:51:00;;;;;;;3.40;0.90;;;12.10;93.10;;;;;;4750299;30;20069;-90
2023/04/12 09:53:29;;;;;;;5.53;1.20;;;12.10;93.00;;;;;;4764332;30;20115;-90
2023/04/12 09:55:57;;;;;;;3.65;1.13;;;12.20;92.80;;;;;;4757979;30;20062;-90
2023/04/12 09:58:26;;;;;;;3.13;0.60;;;12.30;92.80;;;;;;4741243;30;20062;-88
2023/04/12 10:00:59;;;;;;;4.57;0.85;;;12.50;92.70;;;;;;4753544;30;20052;-88
2023/04/12 10:03:27;;;;;;;5.45;1.58;;;12.70;92.50;;;;;;4746025;30;20044;-91
2023/04/12 10:05:58;;;;;;;5.70;1.10;;;12.80;92.10;;;;;;4755390;30;20058;-89
2023/04/12 10:08:31;;;;;;;4.00;0.88;;;12.80;92.10;;;;;;4769473;30;20060;-90
2023/04/12 10:10:59;;;;;;;5.13;0.80;;;13.00;92.00;;;;;;4752330;30;20147;-89
2023/04/12 10:13:30;;;;;;;6.40;1.05;;;13.00;91.80;;;;;;4735604;30;20099;-88
2023/04/12 10:15:59;;;;;;;7.22;0.93;;;13.00;91.50;;;;;;4744152;30;20056;-90
2023/04/12 10:18:28;;;;;;;5.03;1.05;;;12.90;91.50;;;;;;4750781;30;20197;-89
2023/04/12 10:20:56;;;;;;;5.50;1.05;;;12.90;91.50;;;;;;4744808;30;20048;-89
2023/04/12 10:23:25;;;;;;;6.95;1.00;;;12.80;91.50;;;;;;4752029;30;20052;-88
2023/04/12 10:25:55;;;;;;;7.95;1.45;;;12.90;91.30;;;;;;4731457;30;20498;-91
2023/04/12 10:28:25;;;;;;;7.65;1.15;;;12.80;90.70;;;;;;4752346;30;20081;-89
2023/04/12 10:30:56;;;;;;;8.35;1.50;;;12.80;90.70;;;;;;4765116;30;20055;-90
2023/04/12 10:33:30;;;;;;;3.72;1.00;;;12.80;90.60;;;;;;4757075;30;20056;-88
2023/04/12 10:36:07;;;;;;;3.08;0.68;;;12.90;90.40;;;;;;4763180;30;20063;-89
2023/04/12 10:39:17;;;;;;;4.43;1.25;;;13.00;90.40;;;;;;4755169;30;20072;-94
2023/04/12 10:42:28;;;;;;;6.72;1.05;;;13.20;90.30;;;;;;4753783;30;20064;-92
2023/04/12 10:45:24;;;;;;;3.58;1.10;;;13.40;89.50;;;;;;4737485;30;20143;-90
2023/04/12 10:47:57;;;;;;;3.65;1.33;;;13.50;88.90;;;;;;4751782;30;20063;-89
2023/04/12 10:50:32;;;;;;;3.42;0.57;;;13.30;89.10;;;;;;4750858;30;20688;-90
2023/04/12 10:53:11;;;;;;;4.05;0.90;;;13.30;89.40;;;;;;4751769;30;20114;-91
2023/04/12 10:55:40;;;;;;;5.22;0.90;;;13.10;89.30;;;;;;4754803;30;20052;-91
2023/04/12 10:58:45;;;;;;;4.47;1.20;;;12.90;89.80;;;;;;4755577;30;20063;-91
2023/04/12 11:05:09;;;;;;;8.60;1.73;;;12.60;89.90;;;;;;4755478;30;20110;-88
2023/04/12 11:08:09;;;;;;;3.38;0.73;;;12.50;89.70;;;;;;4732803;30;20052;-91
2023/04/12 11:10:49;;;;;;;10.27;1.55;;;12.40;89.90;;;;;;4735441;30;20570;-91
2023/04/12 11:13:27;;;;;;;5.72;1.58;;;12.40;89.60;;;;;;4740885;30;20480;-92
2023/04/12 11:16:16;;;;;;;8.30;1.33;;;12.40;89.20;;;;;;4757612;30;20520;-91
2023/04/12 11:18:49;;;;;;;5.18;1.10;;;12.30;89.00;;;;;;4740407;30;20056;-91
2023/04/12 11:21:18;;;;;;;6.75;1.40;;;12.40;89.00;;;;;;4737913;30;20048;-90
2023/04/12 11:23:49;;;;;;;4.32;0.85;;;12.50;88.70;;;;;;4745294;30;20078;-90
2023/04/12 11:26:45;;;;;;;;;;;;;;;;;;;;;
2023/04/12 11:29:25;;;;;;;4.43;0.80;;;12.90;87.90;;;;;;4739987;30;20514;-90
2023/04/12 11:31:55;;;;;;;4.22;0.95;;;13.00;87.30;;;;;;4764852;30;20060;-90
2023/04/12 11:34:22;;;;;;;8.30;1.30;;;13.00;86.90;;;;;;4749040;30;20052;-85
2023/04/12 11:36:53;;;;;;;6.25;0.95;;;13.00;87.00;;;;;;4743055;30;20060;-87
2023/04/12 11:39:20;;;;;;;7.60;0.93;;;13.00;86.80;;;;;;4753825;30;20056;-87
2023/04/12 11:41:48;;;;;;;5.15;1.40;;;13.00;87.00;;;;;;4728800;30;20052;-87
2023/04/12 11:44:20;;;;;;;4.65;0.68;;;13.10;87.00;;;;;;4773275;30;20052;-91
2023/04/12 11:46:48;;;;;;;4.35;0.60;;;13.00;87.10;;;;;;4773931;30;20151;-92
2023/04/12 11:49:16;;;;;;;6.25;0.70;;;13.10;86.90;;;;;;4748156;30;20152;-89
2023/04/12 11:51:44;;;;;;;4.55;0.82;;;13.30;86.60;;;;;;4753213;30;20056;-87
2023/04/12 11:54:15;;;;;;;4.25;0.93;;;13.40;85.80;;;;;;4765930;30;20064;-84
2023/04/12 11:56:42;;;;;;;7.22;1.00;;;13.50;85.10;;;;;;4735981;30;20059;-86
2023/04/12 11:59:09;;;;;;;4.85;0.77;;;13.50;84.90;;;;;;4749915;30;20051;-88
2023/04/12 12:01:36;;;;;;;5.72;0.98;;;13.50;85.00;;;;;;4747524;30;20086;-87
2023/04/12 12:04:04;;;;;;;9.55;1.75;;;13.40;84.70;;;;;;4724630;30;20144;-87
2023/04/12 12:06:33;;;;;;;7.78;2.10;;;13.40;84.20;;;;;;4752057;30;20083;-86
2023/04/12 12:09:02;;;;;;;10.27;1.33;;;13.30;83.40;;;;;;4739253;30;20064;-86
2023/04/12 12:11:30;;;;;;;11.23;1.65;;;13.30;82.60;;;;;;4756653;30;20044;-86
2023/04/12 12:13:58;;;;;;;3.80;1.05;;;13.50;81.40;;;;;;4756523;30;20055;-84
2023/04/12 12:16:28;;;;;;;7.85;1.38;;;13.60;80.50;;;;;;4742160;30;20066;-85
2023/04/12 12:18:56;;;;;;;6.70;0.93;;;13.50;78.80;;;;;;4759810;30;20160;-84
2023/04/12 12:21:25;;;;;;;5.00;1.15;;;13.30;79.00;;;;;;4728098;30;20433;-85
2023/04/12 12:23:55;;;;;;;6.20;0.70;;;13.20;78.80;;;;;;4738587;30;20105;-85
2023/04/12 12:26:24;;;;;;;5.68;1.13;;;13.00;79.10;;;;;;4747513;30;20513;-85
2023/04/12 12:28:56;;;;;;;3.63;0.60;;;13.00;79.50;;;;;;4738715;30;20143;-88
2023/04/12 12:31:25;;;;;;;;;;;13.00;80.30;;;;;;4753966;30;20147;-88
2023/04/12 12:33:57;;;;;;;4.10;0.73;;;13.00;79.00;;;;;;4740995;30;19926;-88
2023/04/12 12:36:31;;;;;;;3.58;0.90;;;13.10;78.70;;;;;;4746764;30;20116;-85
2023/04/12 12:43:12;;;;;;;6.68;1.30;;;13.20;77.80;;;;;;4736027;30;20530;-91
2023/04/12 12:45:40;;;;;;;5.18;1.33;;;13.10;77.60;;;;;;4726198;30;20524;-86
2023/04/12 12:52:32;;;;;;;6.55;0.90;;;13.00;77.90;;;;;;4667453;30;20087;-86
2023/04/12 12:55:07;;;;;;;5.15;1.35;;;13.00;77.50;;;;;;4765463;30;20056;-86
2023/04/12 12:57:35;;;;;;;4.70;1.08;;;13.20;75.90;;;;;;4754427;30;20059;-87
2023/04/12 13:00:03;;;;;;;4.32;0.50;;;13.30;74.60;;;;;;4770665;30;20134;-86
2023/04/12 13:02:33;;;;;;;3.95;0.63;;;13.30;72.90;;;;;;4741359;30;20068;-86
2023/04/12 13:05:01;;;;;;;4.93;0.35;;;13.20;71.90;;;;;;4752943;30;20075;-90
2023/04/12 13:08:23;;;;;;;4.18;0.40;;;13.20;69.60;;;;;;4738817;30;20059;-92
2023/04/12 13:10:51;;;;;;;3.10;0.55;;;13.10;69.80;;;;;;4763921;30;20706;-89
2023/04/12 13:13:32;;;;;;;3.78;0.65;;;12.90;69.10;;;;;;4755395;30;20114;-85
2023/04/12 13:15:59;;;;;;;3.90;0.82;;;12.80;69.00;;;;;;4741521;30;20114;-86
2023/04/12 13:18:26;;;;;;;3.85;0.75;;;12.80;68.50;;;;;;4737214;30;20056;-85
2023/04/12 13:20:53;;;;;;;3.67;0.68;;;12.80;68.20;;;;;;4737992;30;20049;-88
2023/04/12 13:23:20;;;;;;;2.83;0.38;;;12.80;67.60;;;;;;4737723;30;20083;-86
2023/04/12 13:25:47;;;;;;;3.13;0.40;;;12.70;67.50;;;;;;4737892;30;20465;-89
2023/04/12 13:28:15;;;;;;;4.03;0.32;;;12.70;67.40;;;;;;4730193;30;20170;-91
2023/04/12 13:30:42;;;;;;;6.55;0.50;;;12.70;66.70;;;;;;4738809;30;20488;-89
2023/04/12 13:33:10;;;;;;;3.53;0.40;;;12.70;66.50;;;;;;4728886;30;20060;-87
2023/04/12 13:35:41;;;;;;;4.22;0.73;;;12.70;65.60;;;;;;4737652;30;20063;-87
2023/04/12 13:38:08;;;;;;;4.05;0.50;;;12.70;65.50;;;;;;4737487;30;20056;-88
2023/04/12 13:40:36;;;;;;;5.38;1.05;;;12.50;65.30;;;;;;4731991;30;20521;-87
2023/04/12 13:43:03;;;;;;;5.90;0.55;;;12.50;64.80;;;;;;4730397;30;20052;-88
2023/04/12 13:45:30;;;;;;;4.70;0.40;;;12.50;64.30;;;;;;4738119;30;20094;-85
2023/04/12 13:48:00;;;;;;;3.30;0.75;;;12.50;64.60;;;;;;4736879;30;20052;-93
2023/04/12 13:50:27;;;;;;;2.80;0.57;;;12.50;65.00;;;;;;4737771;30;20087;-91
2023/04/12 13:52:54;;;;;;;5.75;0.68;;;12.50;65.00;;;;;;4738309;30;20113;-90
2023/04/12 13:55:21;;;;;;;4.20;0.52;;;12.50;65.20;;;;;;4743834;30;20052;-92
2023/04/12 13:57:48;;;;;;;2.85;0.60;;;12.50;64.90;;;;;;4749908;30;20048;-87
2023/04/12 14:00:16;;;;;;;7.30;0.70;;;12.50;64.60;;;;;;4731351;30;20537;-89
2023/04/12 14:02:43;;;;;;;5.45;0.80;;;12.40;64.20;;;;;;4741469;30;20051;-89
2023/04/12 14:05:25;;;;;;;4.47;0.63;;;12.40;64.80;;;;;;4730343;30;20056;-91
2023/04/12 14:07:55;;;;;;;8.50;1.10;;;12.30;65.40;;;;;;4759072;30;20064;-94
2023/04/12 14:10:22;;;;;;;4.30;0.55;;;12.30;65.90;;;;;;4773531;30;20060;-91
2023/04/12 14:12:49;;;;;;;3.03;0.47;;;12.20;66.00;;;;;;4768506;30;20060;-93
2023/04/12 14:15:16;;;;;;;2.13;0.50;;;12.10;66.70;;;;;;4756251;30;20062;-92
2023/04/12 14:17:43;;;;;;;1.77;0.30;;;11.90;67.10;;;;;;4756407;30;20085;-91
2023/04/12 14:20:12;;;;;;;2.85;0.30;;;11.80;67.60;;;;;;4723756;30;20048;-93
2023/04/12 14:22:40;;;;;;;7.00;0.65;;;11.70;67.80;;;;;;4737939;30;20510;-96
2023/04/12 14:25:08;;;;;;;3.47;0.50;;;11.60;68.10;;;;;;4752365;30;20573;-90
2023/04/12 14:27:38;;;;;;;4.35;0.40;;;11.60;68.30;;;;;;4741093;30;20081;-95
2023/04/12 14:30:06;;;;;;;1.10;0.30;;;11.60;68.40;;;;;;4747688;30;20056;-90